Beaver County Airport
KBVI : now visible

Airfield :











YOU CAN JOIN US ON...

 
LOGIN :

Register | Disclaimer

   EN    FR    IT 

 









Legend :    VFR   Marginal VFR   IFR   Intensive IFR   Very Intensive IFR
Visi :
Ceiling :
>= 8 km
>= 3000ft
5 to 8 km
1000 to 3000 ft
1500m to 5 km
500 to 1000 ft
800 to 1500m
200 to 500 ft
< 800m
< 200 ft
Symbols :   Thunderstorms  Fog  Heavy snow  Heavy precipitations  Wind > 20 kt







- Airport Elevation : 1253 ft


KBVI - Beaver County

CURRENT METAR :
  • 181847Z 28004KT 10SM SCT038 SCT046 29/21 A2999

EXPIRED METARs :
  • 181747Z 23006KT 10SM BKN026 BKN033 BKN041 29/22 A2999
  • 181647Z 36003KT 10SM CLR 28/22 A2999

TAF KBVI
Valid from the 18 at 18:00 until the 19 at 18:00 UTC


181722Z 1818/1918 VRB05KT P6SM SCT025
FM190900 22006KT P6SM BKN006
FM191400 24011KT P6SM SCT025
KZOB FIR / North America



MET'MAP, your aeronautical weather chart ! - Copyright ORBIFLY December 2007 - Disclaimer

ORBIFLY MET'MAP TEAM :

Programming & Development : Alexandra Zaïnal
Concept & Development : Baudouin d'Aumeries
Co-Development & Prog : Marc-Olivier Méhu
Technical & hardware support : Manuel Goepfert

Contact : metmap@orbifly.com




SOURCES & CREDITS :

   NOAA       Earth
Advisory